sensor_id;sensor_type;location;lat;lon;timestamp;temperature;humidity
38973;DHT22;25333;50.762;4.470;2023-07-28T00:00:07;18.20;99.90
38973;DHT22;25333;50.762;4.470;2023-07-28T00:02:33;18.10;99.90
38973;DHT22;25333;50.762;4.470;2023-07-28T00:04:59;18.20;99.90
38973;DHT22;25333;50.762;4.470;2023-07-28T00:07:25;18.20;99.90
38973;DHT22;25333;50.762;4.470;2023-07-28T00:09:50;18.10;99.90
38973;DHT22;25333;50.762;4.470;2023-07-28T00:12:16;18.20;99.90
38973;DHT22;25333;50.762;4.470;2023-07-28T00:14:42;18.20;99.90
38973;DHT22;25333;50.762;4.470;2023-07-28T00:17:07;18.10;99.90
38973;DHT22;25333;50.762;4.470;2023-07-28T00:19:33;18.10;99.90
38973;DHT22;25333;50.762;4.470;2023-07-28T00:21:58;18.30;99.90
38973;DHT22;25333;50.762;4.470;2023-07-28T00:24:24;18.20;99.90
38973;DHT22;25333;50.762;4.470;2023-07-28T00:26:50;18.10;99.90
38973;DHT22;25333;50.762;4.470;2023-07-28T00:29:15;18.10;99.90
38973;DHT22;25333;50.762;4.470;2023-07-28T00:31:41;18.10;99.90
38973;DHT22;25333;50.762;4.470;2023-07-28T00:34:07;18.20;99.90
38973;DHT22;25333;50.762;4.470;2023-07-28T00:36:32;18.30;99.90
38973;DHT22;25333;50.762;4.470;2023-07-28T00:39:01;18.30;99.90
38973;DHT22;25333;50.762;4.470;2023-07-28T00:41:26;18.20;99.90
38973;DHT22;25333;50.762;4.470;2023-07-28T00:43:52;18.20;99.90
38973;DHT22;25333;50.762;4.470;2023-07-28T00:46:17;18.20;99.90
38973;DHT22;25333;50.762;4.470;2023-07-28T00:48:43;18.20;99.90
38973;DHT22;25333;50.762;4.470;2023-07-28T00:51:10;18.20;99.90
38973;DHT22;25333;50.762;4.470;2023-07-28T00:53:37;18.10;99.90
38973;DHT22;25333;50.762;4.470;2023-07-28T00:56:02;18.00;99.90
38973;DHT22;25333;50.762;4.470;2023-07-28T00:58:30;18.10;99.90
38973;DHT22;25333;50.762;4.470;2023-07-28T01:00:56;18.10;99.90
38973;DHT22;25333;50.762;4.470;2023-07-28T01:03:22;18.20;99.90
38973;DHT22;25333;50.762;4.470;2023-07-28T01:09:05;18.10;99.90
38973;DHT22;25333;50.762;4.470;2023-07-28T01:11:05;18.10;99.90
38973;DHT22;25333;50.762;4.470;2023-07-28T01:13:31;18.00;99.90
38973;DHT22;25333;50.762;4.470;2023-07-28T01:15:56;17.90;99.90
38973;DHT22;25333;50.762;4.470;2023-07-28T01:18:23;18.00;99.90
38973;DHT22;25333;50.762;4.470;2023-07-28T01:20:50;18.00;99.90
38973;DHT22;25333;50.762;4.470;2023-07-28T01:26:09;18.00;99.90
38973;DHT22;25333;50.762;4.470;2023-07-28T01:28:37;18.10;99.90
38973;DHT22;25333;50.762;4.470;2023-07-28T01:31:03;18.30;99.90
38973;DHT22;25333;50.762;4.470;2023-07-28T01:33:32;18.20;99.90
38973;DHT22;25333;50.762;4.470;2023-07-28T01:35:58;18.10;99.90
38973;DHT22;25333;50.762;4.470;2023-07-28T01:38:27;18.10;99.90
38973;DHT22;25333;50.762;4.470;2023-07-28T01:40:53;18.10;99.90
38973;DHT22;25333;50.762;4.470;2023-07-28T01:43:18;18.10;99.90
38973;DHT22;25333;50.762;4.470;2023-07-28T01:45:44;17.90;99.90
38973;DHT22;25333;50.762;4.470;2023-07-28T01:48:10;17.90;99.90
38973;DHT22;25333;50.762;4.470;2023-07-28T01:50:36;18.00;99.90
38973;DHT22;25333;50.762;4.470;2023-07-28T01:53:01;18.00;99.90
38973;DHT22;25333;50.762;4.470;2023-07-28T01:55:27;18.10;99.90
38973;DHT22;25333;50.762;4.470;2023-07-28T01:57:58;18.10;99.90
38973;DHT22;25333;50.762;4.470;2023-07-28T02:00:24;18.20;99.90
38973;DHT22;25333;50.762;4.470;2023-07-28T02:02:50;18.20;99.90
38973;DHT22;25333;50.762;4.470;2023-07-28T02:05:16;18.20;99.90
38973;DHT22;25333;50.762;4.470;2023-07-28T02:07:42;18.20;99.90
38973;DHT22;25333;50.762;4.470;2023-07-28T02:10:08;18.30;99.90
38973;DHT22;25333;50.762;4.470;2023-07-28T02:12:36;18.30;99.90
38973;DHT22;25333;50.762;4.470;2023-07-28T02:15:01;18.20;99.90
38973;DHT22;25333;50.762;4.470;2023-07-28T02:17:27;18.10;99.90
38973;DHT22;25333;50.762;4.470;2023-07-28T02:19:53;18.10;99.90
38973;DHT22;25333;50.762;4.470;2023-07-28T02:22:18;18.00;99.90
38973;DHT22;25333;50.762;4.470;2023-07-28T02:24:44;18.00;99.90
38973;DHT22;25333;50.762;4.470;2023-07-28T02:27:09;18.10;99.90
38973;DHT22;25333;50.762;4.470;2023-07-28T02:29:35;18.20;99.90
38973;DHT22;25333;50.762;4.470;2023-07-28T02:32:01;18.20;99.90
38973;DHT22;25333;50.762;4.470;2023-07-28T02:34:26;18.20;99.90
38973;DHT22;25333;50.762;4.470;2023-07-28T02:36:52;18.10;99.90
38973;DHT22;25333;50.762;4.470;2023-07-28T02:39:18;18.20;99.90
38973;DHT22;25333;50.762;4.470;2023-07-28T02:41:43;18.20;99.90
38973;DHT22;25333;50.762;4.470;2023-07-28T02:44:09;18.30;99.90
38973;DHT22;25333;50.762;4.470;2023-07-28T02:46:35;18.30;99.90
38973;DHT22;25333;50.762;4.470;2023-07-28T02:49:02;18.30;99.90
38973;DHT22;25333;50.762;4.470;2023-07-28T02:51:29;18.30;99.90
38973;DHT22;25333;50.762;4.470;2023-07-28T02:53:55;18.40;99.90
38973;DHT22;25333;50.762;4.470;2023-07-28T02:56:21;18.50;99.90
38973;DHT22;25333;50.762;4.470;2023-07-28T02:58:48;18.50;99.90
38973;DHT22;25333;50.762;4.470;2023-07-28T03:01:14;18.30;99.90
38973;DHT22;25333;50.762;4.470;2023-07-28T03:03:39;18.30;99.90
38973;DHT22;25333;50.762;4.470;2023-07-28T03:06:05;18.30;99.90
38973;DHT22;25333;50.762;4.470;2023-07-28T03:08:31;18.30;99.90
38973;DHT22;25333;50.762;4.470;2023-07-28T03:10:59;18.30;99.90
38973;DHT22;25333;50.762;4.470;2023-07-28T03:13:30;18.40;99.90
38973;DHT22;25333;50.762;4.470;2023-07-28T03:15:56;18.30;99.90
38973;DHT22;25333;50.762;4.470;2023-07-28T03:18:22;18.30;99.90
38973;DHT22;25333;50.762;4.470;2023-07-28T03:20:47;18.30;99.90
38973;DHT22;25333;50.762;4.470;2023-07-28T03:23:13;18.30;99.90
38973;DHT22;25333;50.762;4.470;2023-07-28T03:25:39;18.20;99.90
38973;DHT22;25333;50.762;4.470;2023-07-28T03:28:05;18.30;99.90
38973;DHT22;25333;50.762;4.470;2023-07-28T03:30:30;18.30;99.90
38973;DHT22;25333;50.762;4.470;2023-07-28T03:32:56;18.30;99.90
38973;DHT22;25333;50.762;4.470;2023-07-28T03:35:22;18.30;99.90
38973;DHT22;25333;50.762;4.470;2023-07-28T03:37:48;18.30;99.90
38973;DHT22;25333;50.762;4.470;2023-07-28T03:40:13;18.30;99.90
38973;DHT22;25333;50.762;4.470;2023-07-28T03:42:39;18.40;99.90
38973;DHT22;25333;50.762;4.470;2023-07-28T03:45:05;18.30;99.90
38973;DHT22;25333;50.762;4.470;2023-07-28T03:47:31;18.30;99.90
38973;DHT22;25333;50.762;4.470;2023-07-28T03:49:57;18.30;99.90
38973;DHT22;25333;50.762;4.470;2023-07-28T03:52:22;18.40;99.90
38973;DHT22;25333;50.762;4.470;2023-07-28T03:54:48;18.40;99.90
38973;DHT22;25333;50.762;4.470;2023-07-28T03:57:13;18.40;99.90
38973;DHT22;25333;50.762;4.470;2023-07-28T03:59:39;18.50;99.90
38973;DHT22;25333;50.762;4.470;2023-07-28T04:02:05;18.50;99.90
38973;DHT22;25333;50.762;4.470;2023-07-28T04:04:30;18.50;99.90
38973;DHT22;25333;50.762;4.470;2023-07-28T04:06:56;18.60;99.90
38973;DHT22;25333;50.762;4.470;2023-07-28T04:09:21;18.60;99.90
38973;DHT22;25333;50.762;4.470;2023-07-28T04:11:47;18.50;99.90
38973;DHT22;25333;50.762;4.470;2023-07-28T04:14:13;18.50;99.90
38973;DHT22;25333;50.762;4.470;2023-07-28T04:16:39;18.40;99.90
38973;DHT22;25333;50.762;4.470;2023-07-28T04:19:13;18.40;99.90
38973;DHT22;25333;50.762;4.470;2023-07-28T04:21:39;18.50;99.90
38973;DHT22;25333;50.762;4.470;2023-07-28T04:24:06;18.30;99.90
38973;DHT22;25333;50.762;4.470;2023-07-28T04:26:32;18.40;99.90
38973;DHT22;25333;50.762;4.470;2023-07-28T04:28:58;18.40;99.90
38973;DHT22;25333;50.762;4.470;2023-07-28T04:31:24;18.40;99.90
38973;DHT22;25333;50.762;4.470;2023-07-28T04:33:49;18.50;99.90
38973;DHT22;25333;50.762;4.470;2023-07-28T04:36:15;18.40;99.90
38973;DHT22;25333;50.762;4.470;2023-07-28T04:38:41;18.40;99.90
38973;DHT22;25333;50.762;4.470;2023-07-28T04:41:06;18.50;99.90
38973;DHT22;25333;50.762;4.470;2023-07-28T04:43:32;18.50;99.90
38973;DHT22;25333;50.762;4.470;2023-07-28T04:45:58;18.40;99.90
38973;DHT22;25333;50.762;4.470;2023-07-28T04:48:23;18.40;99.90
38973;DHT22;25333;50.762;4.470;2023-07-28T04:50:49;18.40;99.90
38973;DHT22;25333;50.762;4.470;2023-07-28T04:53:15;18.40;99.90
38973;DHT22;25333;50.762;4.470;2023-07-28T04:55:40;18.40;99.90
38973;DHT22;25333;50.762;4.470;2023-07-28T04:58:06;18.50;99.90
38973;DHT22;25333;50.762;4.470;2023-07-28T05:00:31;18.60;99.90
38973;DHT22;25333;50.762;4.470;2023-07-28T05:02:57;18.60;99.90
38973;DHT22;25333;50.762;4.470;2023-07-28T05:05:23;18.60;99.90
38973;DHT22;25333;50.762;4.470;2023-07-28T05:07:48;18.60;99.90
38973;DHT22;25333;50.762;4.470;2023-07-28T05:10:14;18.50;99.90
38973;DHT22;25333;50.762;4.470;2023-07-28T05:12:40;18.50;99.90
38973;DHT22;25333;50.762;4.470;2023-07-28T05:15:21;18.50;99.90
38973;DHT22;25333;50.762;4.470;2023-07-28T05:17:49;18.50;99.90
38973;DHT22;25333;50.762;4.470;2023-07-28T05:20:45;18.50;99.90
38973;DHT22;25333;50.762;4.470;2023-07-28T05:23:11;18.60;99.90
38973;DHT22;25333;50.762;4.470;2023-07-28T05:25:37;18.60;99.90
38973;DHT22;25333;50.762;4.470;2023-07-28T05:28:02;18.70;99.90
38973;DHT22;25333;50.762;4.470;2023-07-28T05:30:28;18.70;99.90
38973;DHT22;25333;50.762;4.470;2023-07-28T05:32:54;18.70;99.90
38973;DHT22;25333;50.762;4.470;2023-07-28T05:35:20;18.60;99.90
38973;DHT22;25333;50.762;4.470;2023-07-28T05:37:48;18.70;99.90
38973;DHT22;25333;50.762;4.470;2023-07-28T05:40:14;18.70;99.90
38973;DHT22;25333;50.762;4.470;2023-07-28T05:42:40;18.70;99.90
38973;DHT22;25333;50.762;4.470;2023-07-28T05:45:06;18.80;99.90
38973;DHT22;25333;50.762;4.470;2023-07-28T05:47:32;18.80;99.90
38973;DHT22;25333;50.762;4.470;2023-07-28T05:49:58;18.80;99.90
38973;DHT22;25333;50.762;4.470;2023-07-28T05:52:23;18.90;99.90
38973;DHT22;25333;50.762;4.470;2023-07-28T05:54:49;19.00;99.90
38973;DHT22;25333;50.762;4.470;2023-07-28T05:57:14;18.90;99.90
38973;DHT22;25333;50.762;4.470;2023-07-28T05:59:43;19.00;99.90
38973;DHT22;25333;50.762;4.470;2023-07-28T06:02:08;19.00;99.90
38973;DHT22;25333;50.762;4.470;2023-07-28T06:04:34;19.00;99.90
38973;DHT22;25333;50.762;4.470;2023-07-28T06:07:00;18.90;99.90
38973;DHT22;25333;50.762;4.470;2023-07-28T06:09:25;18.90;99.90
38973;DHT22;25333;50.762;4.470;2023-07-28T06:11:52;19.00;99.90
38973;DHT22;25333;50.762;4.470;2023-07-28T06:14:17;19.00;99.90
38973;DHT22;25333;50.762;4.470;2023-07-28T06:16:45;19.00;99.90
38973;DHT22;25333;50.762;4.470;2023-07-28T06:19:13;19.00;99.90
38973;DHT22;25333;50.762;4.470;2023-07-28T06:21:48;18.90;99.90
38973;DHT22;25333;50.762;4.470;2023-07-28T06:24:13;19.00;99.90
38973;DHT22;25333;50.762;4.470;2023-07-28T06:26:39;19.00;99.90
38973;DHT22;25333;50.762;4.470;2023-07-28T06:29:23;19.00;99.90
38973;DHT22;25333;50.762;4.470;2023-07-28T06:31:49;19.00;99.90
38973;DHT22;25333;50.762;4.470;2023-07-28T06:34:22;19.00;99.90
38973;DHT22;25333;50.762;4.470;2023-07-28T06:36:47;19.00;99.90
38973;DHT22;25333;50.762;4.470;2023-07-28T06:39:13;18.90;99.90
38973;DHT22;25333;50.762;4.470;2023-07-28T06:41:41;18.90;99.90
38973;DHT22;25333;50.762;4.470;2023-07-28T06:44:07;18.90;99.90
38973;DHT22;25333;50.762;4.470;2023-07-28T06:46:36;19.00;99.90
38973;DHT22;25333;50.762;4.470;2023-07-28T06:49:04;19.10;99.90
38973;DHT22;25333;50.762;4.470;2023-07-28T06:51:42;19.10;99.90
38973;DHT22;25333;50.762;4.470;2023-07-28T06:54:16;19.20;99.90
38973;DHT22;25333;50.762;4.470;2023-07-28T06:56:42;19.20;99.90
38973;DHT22;25333;50.762;4.470;2023-07-28T06:59:08;19.30;99.90
38973;DHT22;25333;50.762;4.470;2023-07-28T07:01:34;19.30;99.90
38973;DHT22;25333;50.762;4.470;2023-07-28T07:03:59;19.40;99.90
38973;DHT22;25333;50.762;4.470;2023-07-28T07:06:26;19.40;99.90
38973;DHT22;25333;50.762;4.470;2023-07-28T07:08:51;19.50;99.90
38973;DHT22;25333;50.762;4.470;2023-07-28T07:11:18;19.50;99.90
38973;DHT22;25333;50.762;4.470;2023-07-28T07:13:43;19.50;99.90
38973;DHT22;25333;50.762;4.470;2023-07-28T07:16:18;19.60;99.90
38973;DHT22;25333;50.762;4.470;2023-07-28T07:18:44;19.50;99.90
38973;DHT22;25333;50.762;4.470;2023-07-28T07:21:09;19.40;99.90
38973;DHT22;25333;50.762;4.470;2023-07-28T07:23:36;19.40;99.90
38973;DHT22;25333;50.762;4.470;2023-07-28T07:26:02;19.50;99.90
38973;DHT22;25333;50.762;4.470;2023-07-28T07:28:28;19.50;99.90
38973;DHT22;25333;50.762;4.470;2023-07-28T07:30:54;19.50;99.90
38973;DHT22;25333;50.762;4.470;2023-07-28T07:33:20;19.40;99.90
38973;DHT22;25333;50.762;4.470;2023-07-28T07:35:46;19.40;99.90
38973;DHT22;25333;50.762;4.470;2023-07-28T07:38:11;19.50;99.90
38973;DHT22;25333;50.762;4.470;2023-07-28T07:40:37;19.60;99.90
38973;DHT22;25333;50.762;4.470;2023-07-28T07:43:03;19.80;99.90
38973;DHT22;25333;50.762;4.470;2023-07-28T07:45:30;19.80;99.90
38973;DHT22;25333;50.762;4.470;2023-07-28T07:47:55;19.80;99.90
38973;DHT22;25333;50.762;4.470;2023-07-28T07:50:21;19.90;99.90
38973;DHT22;25333;50.762;4.470;2023-07-28T07:52:47;20.00;99.90
38973;DHT22;25333;50.762;4.470;2023-07-28T07:55:13;20.00;99.90
38973;DHT22;25333;50.762;4.470;2023-07-28T07:57:42;20.10;99.90
38973;DHT22;25333;50.762;4.470;2023-07-28T08:00:08;20.00;99.90
38973;DHT22;25333;50.762;4.470;2023-07-28T08:02:34;20.00;99.90
38973;DHT22;25333;50.762;4.470;2023-07-28T08:05:00;20.00;99.90
38973;DHT22;25333;50.762;4.470;2023-07-28T08:07:26;20.10;99.90
38973;DHT22;25333;50.762;4.470;2023-07-28T08:09:52;20.10;99.90
38973;DHT22;25333;50.762;4.470;2023-07-28T08:12:17;20.00;99.90
38973;DHT22;25333;50.762;4.470;2023-07-28T08:14:44;20.00;99.90
38973;DHT22;25333;50.762;4.470;2023-07-28T08:17:11;20.10;99.90
38973;DHT22;25333;50.762;4.470;2023-07-28T08:19:40;20.00;99.90
38973;DHT22;25333;50.762;4.470;2023-07-28T08:22:06;19.90;99.90
38973;DHT22;25333;50.762;4.470;2023-07-28T08:24:32;20.10;99.90
38973;DHT22;25333;50.762;4.470;2023-07-28T08:26:58;20.10;99.90
38973;DHT22;25333;50.762;4.470;2023-07-28T08:29:24;20.20;99.90
38973;DHT22;25333;50.762;4.470;2023-07-28T08:31:51;20.20;99.90
38973;DHT22;25333;50.762;4.470;2023-07-28T08:34:16;20.10;99.90
38973;DHT22;25333;50.762;4.470;2023-07-28T08:36:43;20.10;99.90
38973;DHT22;25333;50.762;4.470;2023-07-28T08:39:09;20.10;99.90
38973;DHT22;25333;50.762;4.470;2023-07-28T08:41:35;20.10;99.90
38973;DHT22;25333;50.762;4.470;2023-07-28T08:44:02;20.10;99.90
38973;DHT22;25333;50.762;4.470;2023-07-28T08:46:27;19.80;99.90
38973;DHT22;25333;50.762;4.470;2023-07-28T08:48:54;19.80;99.90
38973;DHT22;25333;50.762;4.470;2023-07-28T08:51:22;19.90;99.90
38973;DHT22;25333;50.762;4.470;2023-07-28T08:53:49;19.90;99.90
38973;DHT22;25333;50.762;4.470;2023-07-28T08:56:14;19.80;99.90
38973;DHT22;25333;50.762;4.470;2023-07-28T08:58:40;19.70;99.90
38973;DHT22;25333;50.762;4.470;2023-07-28T09:01:06;19.80;99.90
38973;DHT22;25333;50.762;4.470;2023-07-28T09:03:31;19.90;99.90
38973;DHT22;25333;50.762;4.470;2023-07-28T09:06:02;19.90;99.90
38973;DHT22;25333;50.762;4.470;2023-07-28T09:08:30;20.00;99.90
38973;DHT22;25333;50.762;4.470;2023-07-28T09:11:02;20.00;99.90
38973;DHT22;25333;50.762;4.470;2023-07-28T09:13:36;20.00;99.90
38973;DHT22;25333;50.762;4.470;2023-07-28T09:16:01;20.20;99.90
38973;DHT22;25333;50.762;4.470;2023-07-28T09:18:28;20.20;99.90
38973;DHT22;25333;50.762;4.470;2023-07-28T09:20:53;20.20;99.90
38973;DHT22;25333;50.762;4.470;2023-07-28T09:23:30;20.20;99.90
38973;DHT22;25333;50.762;4.470;2023-07-28T09:25:59;20.20;99.90
38973;DHT22;25333;50.762;4.470;2023-07-28T09:28:46;20.30;99.90
38973;DHT22;25333;50.762;4.470;2023-07-28T09:31:12;20.30;99.90
38973;DHT22;25333;50.762;4.470;2023-07-28T09:33:38;20.30;99.90
38973;DHT22;25333;50.762;4.470;2023-07-28T09:36:14;20.30;99.90
38973;DHT22;25333;50.762;4.470;2023-07-28T09:38:42;20.40;99.90
38973;DHT22;25333;50.762;4.470;2023-07-28T09:41:09;20.30;99.90
38973;DHT22;25333;50.762;4.470;2023-07-28T09:43:37;20.20;99.90
38973;DHT22;25333;50.762;4.470;2023-07-28T09:46:05;20.20;99.90
38973;DHT22;25333;50.762;4.470;2023-07-28T09:48:32;20.20;99.90
38973;DHT22;25333;50.762;4.470;2023-07-28T09:51:05;20.30;99.90
38973;DHT22;25333;50.762;4.470;2023-07-28T09:53:36;20.30;99.90
38973;DHT22;25333;50.762;4.470;2023-07-28T09:56:06;20.50;99.90
38973;DHT22;25333;50.762;4.470;2023-07-28T09:58:34;20.40;99.90
38973;DHT22;25333;50.762;4.470;2023-07-28T10:01:03;20.50;99.90
38973;DHT22;25333;50.762;4.470;2023-07-28T10:03:32;20.60;99.90
38973;DHT22;25333;50.762;4.470;2023-07-28T10:05:58;20.60;99.90
38973;DHT22;25333;50.762;4.470;2023-07-28T10:08:24;20.70;99.90
38973;DHT22;25333;50.762;4.470;2023-07-28T10:10:50;20.80;99.90
38973;DHT22;25333;50.762;4.470;2023-07-28T10:13:21;20.60;99.90
38973;DHT22;25333;50.762;4.470;2023-07-28T10:15:47;20.60;99.90
38973;DHT22;25333;50.762;4.470;2023-07-28T10:18:14;20.70;99.90
38973;DHT22;25333;50.762;4.470;2023-07-28T10:20:42;20.80;99.90
38973;DHT22;25333;50.762;4.470;2023-07-28T10:25:35;20.70;99.90
38973;DHT22;25333;50.762;4.470;2023-07-28T10:28:01;20.80;99.90
38973;DHT22;25333;50.762;4.470;2023-07-28T10:30:27;20.80;99.90
38973;DHT22;25333;50.762;4.470;2023-07-28T10:32:54;20.60;99.90
38973;DHT22;25333;50.762;4.470;2023-07-28T10:35:26;20.60;99.90
38973;DHT22;25333;50.762;4.470;2023-07-28T10:37:53;20.40;99.90
38973;DHT22;25333;50.762;4.470;2023-07-28T10:40:31;20.50;99.90
38973;DHT22;25333;50.762;4.470;2023-07-28T10:42:57;20.60;99.90
38973;DHT22;25333;50.762;4.470;2023-07-28T10:45:26;20.70;99.90
38973;DHT22;25333;50.762;4.470;2023-07-28T10:47:53;20.70;99.90
38973;DHT22;25333;50.762;4.470;2023-07-28T10:50:30;20.70;99.90
38973;DHT22;25333;50.762;4.470;2023-07-28T10:52:57;20.90;99.90
38973;DHT22;25333;50.762;4.470;2023-07-28T10:55:24;20.90;99.90
38973;DHT22;25333;50.762;4.470;2023-07-28T10:57:52;21.00;99.90
38973;DHT22;25333;50.762;4.470;2023-07-28T11:00:20;20.90;99.90
38973;DHT22;25333;50.762;4.470;2023-07-28T11:02:51;20.60;99.90
38973;DHT22;25333;50.762;4.470;2023-07-28T11:05:27;20.60;99.90
38973;DHT22;25333;50.762;4.470;2023-07-28T11:07:56;20.40;99.90
38973;DHT22;25333;50.762;4.470;2023-07-28T11:10:21;20.30;99.90
38973;DHT22;25333;50.762;4.470;2023-07-28T11:12:49;20.20;99.90
38973;DHT22;25333;50.762;4.470;2023-07-28T11:15:16;20.30;99.90
38973;DHT22;25333;50.762;4.470;2023-07-28T11:17:45;20.20;99.90
38973;DHT22;25333;50.762;4.470;2023-07-28T11:20:26;20.30;99.90
38973;DHT22;25333;50.762;4.470;2023-07-28T11:22:53;20.40;99.90
38973;DHT22;25333;50.762;4.470;2023-07-28T11:25:18;20.40;99.90
38973;DHT22;25333;50.762;4.470;2023-07-28T11:27:45;20.40;99.90
38973;DHT22;25333;50.762;4.470;2023-07-28T11:30:12;20.50;99.90
38973;DHT22;25333;50.762;4.470;2023-07-28T11:32:38;20.60;99.90
38973;DHT22;25333;50.762;4.470;2023-07-28T11:35:05;20.60;99.90
38973;DHT22;25333;50.762;4.470;2023-07-28T11:37:33;20.60;99.90
38973;DHT22;25333;50.762;4.470;2023-07-28T11:40:01;20.60;99.90
38973;DHT22;25333;50.762;4.470;2023-07-28T11:42:28;20.70;99.90
38973;DHT22;25333;50.762;4.470;2023-07-28T11:44:55;20.90;99.90
38973;DHT22;25333;50.762;4.470;2023-07-28T11:47:20;20.90;99.90
38973;DHT22;25333;50.762;4.470;2023-07-28T11:49:49;21.00;99.90
38973;DHT22;25333;50.762;4.470;2023-07-28T11:52:16;21.00;99.90
38973;DHT22;25333;50.762;4.470;2023-07-28T11:54:44;20.90;99.90
38973;DHT22;25333;50.762;4.470;2023-07-28T11:57:10;21.00;99.90
38973;DHT22;25333;50.762;4.470;2023-07-28T11:59:35;21.10;99.90
38973;DHT22;25333;50.762;4.470;2023-07-28T12:02:03;21.20;99.90
38973;DHT22;25333;50.762;4.470;2023-07-28T12:04:40;21.30;99.90
38973;DHT22;25333;50.762;4.470;2023-07-28T12:07:13;21.30;99.90
38973;DHT22;25333;50.762;4.470;2023-07-28T12:12:22;21.80;99.90
38973;DHT22;25333;50.762;4.470;2023-07-28T12:14:49;21.90;99.90
38973;DHT22;25333;50.762;4.470;2023-07-28T12:17:24;21.80;99.90
38973;DHT22;25333;50.762;4.470;2023-07-28T12:20:05;22.00;99.90
38973;DHT22;25333;50.762;4.470;2023-07-28T12:22:39;22.30;99.90
38973;DHT22;25333;50.762;4.470;2023-07-28T12:25:05;22.70;99.90
38973;DHT22;25333;50.762;4.470;2023-07-28T12:27:31;22.80;99.90
38973;DHT22;25333;50.762;4.470;2023-07-28T12:29:57;22.80;99.90
38973;DHT22;25333;50.762;4.470;2023-07-28T12:32:23;22.80;99.90
38973;DHT22;25333;50.762;4.470;2023-07-28T12:34:49;22.40;99.90
38973;DHT22;25333;50.762;4.470;2023-07-28T12:37:15;22.40;99.90
38973;DHT22;25333;50.762;4.470;2023-07-28T12:39:41;22.30;99.90
38973;DHT22;25333;50.762;4.470;2023-07-28T12:42:08;22.30;99.90
38973;DHT22;25333;50.762;4.470;2023-07-28T12:44:35;22.50;99.90
38973;DHT22;25333;50.762;4.470;2023-07-28T12:47:01;22.50;99.90
38973;DHT22;25333;50.762;4.470;2023-07-28T12:49:27;22.40;99.90
38973;DHT22;25333;50.762;4.470;2023-07-28T12:51:59;22.70;99.90
38973;DHT22;25333;50.762;4.470;2023-07-28T12:54:25;22.80;99.90
38973;DHT22;25333;50.762;4.470;2023-07-28T12:56:52;22.90;99.90
38973;DHT22;25333;50.762;4.470;2023-07-28T12:59:18;22.90;99.90
38973;DHT22;25333;50.762;4.470;2023-07-28T13:01:44;23.10;99.90
38973;DHT22;25333;50.762;4.470;2023-07-28T13:04:11;22.90;99.90
38973;DHT22;25333;50.762;4.470;2023-07-28T13:06:37;22.70;99.90
38973;DHT22;25333;50.762;4.470;2023-07-28T13:09:03;22.60;99.90
38973;DHT22;25333;50.762;4.470;2023-07-28T13:11:29;22.50;99.90
38973;DHT22;25333;50.762;4.470;2023-07-28T13:13:55;22.60;99.90
38973;DHT22;25333;50.762;4.470;2023-07-28T13:16:21;22.70;99.90
38973;DHT22;25333;50.762;4.470;2023-07-28T13:18:47;22.60;99.90
38973;DHT22;25333;50.762;4.470;2023-07-28T13:21:13;22.60;99.90
38973;DHT22;25333;50.762;4.470;2023-07-28T13:23:39;22.70;99.90
38973;DHT22;25333;50.762;4.470;2023-07-28T13:26:05;22.70;99.90
38973;DHT22;25333;50.762;4.470;2023-07-28T13:28:32;22.60;99.90
38973;DHT22;25333;50.762;4.470;2023-07-28T13:30:58;22.50;99.90
38973;DHT22;25333;50.762;4.470;2023-07-28T13:33:23;22.50;99.90
38973;DHT22;25333;50.762;4.470;2023-07-28T13:35:49;22.40;99.90
38973;DHT22;25333;50.762;4.470;2023-07-28T13:38:14;22.40;99.90
38973;DHT22;25333;50.762;4.470;2023-07-28T13:40:40;22.40;99.90
38973;DHT22;25333;50.762;4.470;2023-07-28T13:43:06;22.40;99.90
38973;DHT22;25333;50.762;4.470;2023-07-28T13:45:31;22.50;99.90
38973;DHT22;25333;50.762;4.470;2023-07-28T13:47:57;22.70;99.90
38973;DHT22;25333;50.762;4.470;2023-07-28T13:50:23;22.70;99.90
38973;DHT22;25333;50.762;4.470;2023-07-28T13:52:49;22.70;99.90
38973;DHT22;25333;50.762;4.470;2023-07-28T13:55:14;22.50;99.90
38973;DHT22;25333;50.762;4.470;2023-07-28T13:57:40;22.40;99.90
38973;DHT22;25333;50.762;4.470;2023-07-28T14:00:07;22.50;99.90
38973;DHT22;25333;50.762;4.470;2023-07-28T14:02:35;22.50;99.90
38973;DHT22;25333;50.762;4.470;2023-07-28T14:05:01;22.50;99.90
38973;DHT22;25333;50.762;4.470;2023-07-28T14:07:27;22.70;99.90
38973;DHT22;25333;50.762;4.470;2023-07-28T14:09:53;22.50;99.90
38973;DHT22;25333;50.762;4.470;2023-07-28T14:12:18;22.40;99.90
38973;DHT22;25333;50.762;4.470;2023-07-28T14:14:44;22.20;99.90
38973;DHT22;25333;50.762;4.470;2023-07-28T14:17:09;22.20;99.90
38973;DHT22;25333;50.762;4.470;2023-07-28T14:19:38;22.20;99.90
38973;DHT22;25333;50.762;4.470;2023-07-28T14:22:04;22.30;99.90
38973;DHT22;25333;50.762;4.470;2023-07-28T14:24:30;22.30;99.90
38973;DHT22;25333;50.762;4.470;2023-07-28T14:26:55;22.40;99.90
38973;DHT22;25333;50.762;4.470;2023-07-28T14:29:21;22.30;99.90
38973;DHT22;25333;50.762;4.470;2023-07-28T14:31:47;22.40;99.90
38973;DHT22;25333;50.762;4.470;2023-07-28T14:34:13;22.50;99.90
38973;DHT22;25333;50.762;4.470;2023-07-28T14:36:39;22.70;99.90
38973;DHT22;25333;50.762;4.470;2023-07-28T14:39:05;22.70;99.90
38973;DHT22;25333;50.762;4.470;2023-07-28T14:41:31;22.60;99.90
38973;DHT22;25333;50.762;4.470;2023-07-28T14:43:57;22.70;99.90
38973;DHT22;25333;50.762;4.470;2023-07-28T14:46:23;22.70;99.90
38973;DHT22;25333;50.762;4.470;2023-07-28T14:48:50;22.80;99.90
38973;DHT22;25333;50.762;4.470;2023-07-28T14:51:16;22.80;99.90
38973;DHT22;25333;50.762;4.470;2023-07-28T14:53:42;23.00;99.90
38973;DHT22;25333;50.762;4.470;2023-07-28T14:56:10;23.00;99.90
38973;DHT22;25333;50.762;4.470;2023-07-28T14:58:36;23.10;99.90
38973;DHT22;25333;50.762;4.470;2023-07-28T15:01:02;22.90;99.90
38973;DHT22;25333;50.762;4.470;2023-07-28T15:03:30;22.90;99.90
38973;DHT22;25333;50.762;4.470;2023-07-28T15:05:59;23.00;99.90
38973;DHT22;25333;50.762;4.470;2023-07-28T15:08:24;23.10;99.90
38973;DHT22;25333;50.762;4.470;2023-07-28T15:10:50;23.20;99.90
38973;DHT22;25333;50.762;4.470;2023-07-28T15:13:17;23.20;99.90
38973;DHT22;25333;50.762;4.470;2023-07-28T15:15:43;23.20;99.90
38973;DHT22;25333;50.762;4.470;2023-07-28T15:18:08;23.10;99.90
38973;DHT22;25333;50.762;4.470;2023-07-28T15:20:35;22.90;99.90
38973;DHT22;25333;50.762;4.470;2023-07-28T15:23:01;23.00;99.90
38973;DHT22;25333;50.762;4.470;2023-07-28T15:25:27;23.00;99.90
38973;DHT22;25333;50.762;4.470;2023-07-28T15:27:52;23.10;99.90
38973;DHT22;25333;50.762;4.470;2023-07-28T15:30:18;23.00;99.90
38973;DHT22;25333;50.762;4.470;2023-07-28T15:32:43;22.90;99.90
38973;DHT22;25333;50.762;4.470;2023-07-28T15:35:09;23.00;99.90
38973;DHT22;25333;50.762;4.470;2023-07-28T15:37:36;23.00;99.90